Time;durP1;ratioP1;P1;durP2;ratioP2;P2;SDS_P1;SDS_P2;PMS_P1;PMS_P2;Temp;Humidity;BMP_temperature;BMP_pressure;BME280_temperature;BME280_humidity;BME280_pressure;Samples;Min_cycle;Max_cycle;Signal;HPM_P1;HPM_P2
2022/09/24 00:00:29;;;;;;;5.40;4.90;;;15.00;99.90;;;;;;6097579;23;20435;-79
2022/09/24 00:02:57;;;;;;;4.70;4.30;;;14.90;99.90;;;;;;6098385;23;20443;-79
2022/09/24 00:05:24;;;;;;;7.03;6.33;;;14.90;99.90;;;;;;6098078;23;20515;-79
2022/09/24 00:07:54;;;;;;;6.43;5.97;;;14.90;99.90;;;;;;6098442;23;20450;-79
2022/09/24 00:10:22;;;;;;;5.30;4.80;;;14.90;99.90;;;;;;6086108;23;20444;-80
2022/09/24 00:12:48;;;;;;;5.30;4.90;;;14.90;99.90;;;;;;6097918;23;20435;-79
2022/09/24 00:15:16;;;;;;;5.37;4.87;;;14.80;99.90;;;;;;6096203;23;20919;-77
2022/09/24 00:17:48;;;;;;;4.57;4.27;;;14.80;99.90;;;;;;6098409;23;20511;-79
2022/09/24 00:20:15;;;;;;;5.80;5.30;;;14.80;99.90;;;;;;6097504;23;20436;-79
2022/09/24 00:22:43;;;;;;;4.93;4.53;;;14.80;99.90;;;;;;6097820;23;20773;-80
2022/09/24 00:28:56;;;;;;;;;;;;;;;;;;;;;
2022/09/24 00:31:32;;;;;;;6.10;5.60;;;14.70;99.90;;;;;;6096393;23;20427;-79
2022/09/24 00:34:00;;;;;;;5.40;4.90;;;14.70;99.90;;;;;;6096434;23;20438;-79
2022/09/24 00:36:27;;;;;;;5.20;4.70;;;14.70;99.90;;;;;;6096700;23;20703;-80
2022/09/24 00:38:56;;;;;;;6.55;4.90;;;14.60;99.90;;;;;;6097683;23;20535;-79
2022/09/24 00:41:26;;;;;;;5.93;5.43;;;14.60;99.90;;;;;;6098069;23;20228;-79
2022/09/24 00:43:56;;;;;;;6.27;5.70;;;14.60;99.90;;;;;;6096672;23;20494;-79
2022/09/24 00:46:27;;;;;;;6.93;6.33;;;14.60;99.90;;;;;;6090930;23;20466;-79
2022/09/24 00:48:58;;;;;;;6.37;5.83;;;14.60;99.90;;;;;;6117439;23;20499;-78
2022/09/24 00:51:29;;;;;;;6.67;6.17;;;14.60;99.90;;;;;;6112018;23;20436;-79
2022/09/24 00:54:02;;;;;;;5.40;5.00;;;14.50;99.90;;;;;;6118640;23;20498;-80
2022/09/24 00:56:32;;;;;;;6.30;5.80;;;14.60;99.90;;;;;;6105080;23;20477;-79
2022/09/24 00:59:02;;;;;;;6.23;5.73;;;14.50;99.90;;;;;;6108060;23;20927;-80
2022/09/24 01:01:29;;;;;;;6.17;5.53;;;14.50;99.90;;;;;;6096582;23;20498;-79
2022/09/24 01:04:04;;;;;;;5.67;5.23;;;14.50;99.90;;;;;;6096735;23;20436;-78
2022/09/24 01:06:32;;;;;;;6.43;5.90;;;14.50;99.90;;;;;;6097343;23;20427;-80
2022/09/24 01:09:00;;;;;;;7.13;6.43;;;14.50;99.90;;;;;;6095633;23;20439;-80
2022/09/24 01:11:41;;;;;;;7.13;6.50;;;14.50;99.90;;;;;;6097039;23;20432;-78
2022/09/24 01:14:38;;;;;;;6.57;5.97;;;14.50;99.90;;;;;;6096585;23;20486;-80
2022/09/24 01:17:19;;;;;;;7.10;6.38;;;14.50;99.90;;;;;;6095555;23;20726;-79
2022/09/24 01:20:19;;;;;;;6.43;5.88;;;14.50;99.90;;;;;;6097553;23;20206;-79
2022/09/24 01:23:05;;;;;;;6.63;5.90;;;14.50;99.90;;;;;;6097632;23;20694;-80
2022/09/24 01:29:40;;;;;;;6.53;5.93;;;14.50;99.90;;;;;;6061165;23;20416;-79
2022/09/24 01:32:14;;;;;;;7.28;6.40;;;14.40;99.90;;;;;;6059913;23;20785;-79
2022/09/24 01:34:45;;;;;;;6.63;6.13;;;14.40;99.90;;;;;;6096832;23;20223;-80
2022/09/24 01:37:15;;;;;;;7.45;6.75;;;14.40;99.90;;;;;;6097563;23;20211;-80
2022/09/24 01:39:45;;;;;;;8.23;7.47;;;14.40;99.90;;;;;;6097174;23;20270;-80
2022/09/24 01:42:13;;;;;;;8.20;7.50;;;14.40;99.90;;;;;;6097384;23;20219;-79
2022/09/24 01:44:43;;;;;;;6.53;5.93;;;14.50;99.90;;;;;;6096162;23;20199;-79
2022/09/24 01:47:18;;;;;;;7.60;6.90;;;14.40;99.90;;;;;;6083694;23;20504;-79
2022/09/24 01:49:46;;;;;;;6.80;6.20;;;14.50;99.90;;;;;;6097367;23;20222;-79
2022/09/24 01:52:20;;;;;;;6.75;6.15;;;14.50;99.90;;;;;;6097125;23;20514;-79
2022/09/24 01:54:54;;;;;;;6.82;6.22;;;14.50;99.90;;;;;;6085917;23;20273;-80
2022/09/24 01:57:25;;;;;;;8.00;7.30;;;14.50;99.90;;;;;;6114727;23;20226;-79
2022/09/24 01:59:57;;;;;;;6.70;6.20;;;14.50;99.90;;;;;;6096752;23;20534;-79
2022/09/24 02:02:49;;;;;;;7.60;6.90;;;14.50;99.90;;;;;;6097265;23;20211;-79
2022/09/24 02:05:22;;;;;;;7.28;6.57;;;14.50;99.90;;;;;;6097429;23;20210;-78
2022/09/24 02:07:57;;;;;;;7.63;6.77;;;14.50;99.90;;;;;;6097433;23;20202;-79
2022/09/24 02:10:24;;;;;;;9.23;6.57;;;14.50;99.90;;;;;;6096734;23;20435;-78
2022/09/24 02:12:57;;;;;;;6.32;5.80;;;14.50;99.90;;;;;;6096490;23;20238;-78
2022/09/24 02:15:28;;;;;;;7.43;6.70;;;14.50;99.90;;;;;;6096617;23;20264;-78
2022/09/24 02:17:59;;;;;;;7.40;6.82;;;14.50;99.90;;;;;;6097674;23;20485;-78
2022/09/24 02:20:29;;;;;;;7.20;6.30;;;14.50;99.90;;;;;;6096923;23;20257;-78
2022/09/24 02:22:57;;;;;;;7.13;6.53;;;14.60;99.90;;;;;;6102105;23;20211;-77
2022/09/24 02:25:31;;;;;;;7.53;6.90;;;14.60;99.90;;;;;;6086207;23;20560;-78
2022/09/24 02:27:58;;;;;;;8.55;7.78;;;14.60;99.90;;;;;;6097226;23;20286;-78
2022/09/24 02:30:25;;;;;;;6.85;6.03;;;14.60;99.90;;;;;;6096254;23;20214;-78
2022/09/24 02:32:55;;;;;;;7.07;6.47;;;14.60;99.90;;;;;;6096696;23;20507;-78
2022/09/24 02:35:23;;;;;;;7.03;6.22;;;14.60;99.90;;;;;;6095955;23;20250;-79
2022/09/24 02:37:50;;;;;;;7.65;7.05;;;14.60;99.90;;;;;;6097102;23;20266;-80
2022/09/24 02:40:17;;;;;;;6.22;5.72;;;14.60;99.90;;;;;;6094940;23;20711;-78
2022/09/24 02:42:44;;;;;;;7.57;6.88;;;14.60;99.90;;;;;;6096506;23;20644;-78
2022/09/24 02:45:13;;;;;;;7.88;7.28;;;14.60;99.90;;;;;;6096547;23;20227;-77
2022/09/24 02:47:43;;;;;;;10.82;7.07;;;14.60;99.90;;;;;;6097994;23;20218;-78
2022/09/24 02:50:11;;;;;;;9.25;8.02;;;14.60;99.90;;;;;;6099488;23;20210;-79
2022/09/24 02:52:39;;;;;;;8.00;7.30;;;14.60;99.90;;;;;;6098031;23;20555;-78
2022/09/24 02:55:07;;;;;;;16.83;13.97;;;14.60;99.90;;;;;;6099239;23;20435;-78
2022/09/24 02:57:35;;;;;;;20.58;16.60;;;14.60;99.90;;;;;;6098843;23;20469;-78
2022/09/24 03:00:05;;;;;;;10.45;9.45;;;14.60;99.90;;;;;;6100695;23;20199;-77
2022/09/24 03:02:32;;;;;;;15.85;14.20;;;14.60;99.90;;;;;;6099917;23;20212;-78
2022/09/24 03:04:59;;;;;;;9.60;8.70;;;14.60;99.90;;;;;;6099433;23;20274;-78
2022/09/24 03:07:26;;;;;;;7.82;7.00;;;14.60;99.90;;;;;;6098171;23;20552;-78
2022/09/24 03:09:54;;;;;;;9.13;8.32;;;14.60;99.90;;;;;;6099125;23;20199;-77
2022/09/24 03:12:24;;;;;;;12.43;11.20;;;14.60;99.90;;;;;;6098682;23;20238;-80
2022/09/24 03:14:51;;;;;;;10.27;9.18;;;14.50;99.90;;;;;;6089735;23;20207;-79
2022/09/24 03:17:21;;;;;;;8.25;7.55;;;14.50;99.90;;;;;;6115140;23;20262;-80
2022/09/24 03:19:53;;;;;;;10.40;9.30;;;14.50;99.90;;;;;;6097744;23;20597;-80
2022/09/24 03:22:39;;;;;;;10.07;8.43;;;14.50;99.90;;;;;;6099113;23;20486;-80
2022/09/24 03:25:15;;;;;;;9.00;7.93;;;14.50;99.90;;;;;;6091341;23;20270;-79
2022/09/24 03:27:52;;;;;;;8.30;7.50;;;14.50;99.90;;;;;;6100927;23;20438;-79
2022/09/24 03:33:02;;;;;;;9.02;8.25;;;14.50;99.90;;;;;;6046407;23;20274;-79
2022/09/24 03:35:41;;;;;;;9.00;8.20;;;14.50;99.90;;;;;;6081890;23;20210;-81
2022/09/24 03:38:08;;;;;;;8.60;7.65;;;14.50;99.90;;;;;;6098908;23;20191;-78
2022/09/24 03:40:38;;;;;;;11.10;8.20;;;14.50;99.90;;;;;;6082848;23;20242;-78
2022/09/24 03:43:11;;;;;;;7.15;6.45;;;14.40;99.90;;;;;;6112283;23;20446;-79
2022/09/24 03:45:38;;;;;;;10.35;9.27;;;14.40;99.90;;;;;;6111842;23;20203;-78
2022/09/24 03:48:06;;;;;;;9.43;8.52;;;14.40;99.90;;;;;;6098483;23;20499;-78
2022/09/24 03:50:36;;;;;;;8.02;7.20;;;14.40;99.90;;;;;;6097632;23;20208;-78
2022/09/24 03:53:03;;;;;;;8.60;7.90;;;14.40;99.90;;;;;;6097662;23;20632;-78
2022/09/24 03:55:33;;;;;;;8.32;7.53;;;14.40;99.90;;;;;;6098237;23;20471;-78
2022/09/24 03:58:08;;;;;;;8.57;7.80;;;14.40;99.90;;;;;;6096747;23;20199;-77
2022/09/24 04:00:35;;;;;;;8.35;7.55;;;14.40;99.90;;;;;;6097419;23;20198;-78
2022/09/24 04:03:03;;;;;;;9.15;8.35;;;14.40;99.90;;;;;;6097874;23;20286;-78
2022/09/24 04:05:30;;;;;;;8.70;7.90;;;14.40;99.90;;;;;;6098759;23;20199;-79
2022/09/24 04:07:57;;;;;;;7.85;7.25;;;14.40;99.90;;;;;;6098168;23;20208;-78
2022/09/24 04:10:24;;;;;;;8.48;7.68;;;14.40;99.90;;;;;;6098013;23;20227;-78
2022/09/24 04:12:51;;;;;;;8.95;8.23;;;14.40;99.90;;;;;;6097403;23;20208;-79
2022/09/24 04:15:20;;;;;;;10.32;9.32;;;14.40;99.90;;;;;;6089988;23;20262;-78
2022/09/24 04:17:56;;;;;;;11.30;10.25;;;14.40;99.90;;;;;;6113049;23;20585;-78
2022/09/24 04:20:25;;;;;;;11.73;10.25;;;14.40;99.90;;;;;;6097951;23;20203;-77
2022/09/24 04:22:54;;;;;;;10.52;9.63;;;14.30;99.90;;;;;;6097320;23;20231;-77
2022/09/24 04:25:23;;;;;;;9.07;8.27;;;14.40;99.90;;;;;;6097999;23;20270;-77
2022/09/24 04:27:54;;;;;;;9.52;8.63;;;14.30;99.90;;;;;;6097497;23;20196;-77
2022/09/24 04:30:25;;;;;;;10.70;9.65;;;14.30;99.90;;;;;;6097831;23;20204;-78
2022/09/24 04:32:52;;;;;;;12.05;9.73;;;14.30;99.90;;;;;;6095047;23;20274;-77
2022/09/24 04:35:20;;;;;;;9.30;8.50;;;14.30;99.90;;;;;;6107317;23;20683;-77
2022/09/24 04:37:48;;;;;;;9.70;8.70;;;14.30;99.90;;;;;;6098124;23;20502;-78
2022/09/24 04:40:15;;;;;;;7.80;7.10;;;14.30;99.90;;;;;;6098055;23;20215;-78
2022/09/24 04:42:45;;;;;;;9.45;8.60;;;14.30;99.90;;;;;;6097813;23;20211;-78
2022/09/24 04:45:13;;;;;;;9.13;8.23;;;14.30;99.90;;;;;;6096410;23;20231;-77
2022/09/24 04:47:44;;;;;;;11.00;9.90;;;14.30;99.90;;;;;;6092039;23;20295;-78
2022/09/24 04:50:13;;;;;;;8.65;7.53;;;14.30;99.90;;;;;;6108894;23;20199;-78
2022/09/24 04:52:40;;;;;;;9.80;6.95;;;14.30;99.90;;;;;;6097123;23;20211;-78
2022/09/24 04:57:56;;;;;;;9.30;8.50;;;14.30;99.90;;;;;;6094083;23;20259;-78
2022/09/24 05:00:23;;;;;;;7.72;7.00;;;14.30;99.90;;;;;;6096827;23;20519;-78
2022/09/24 05:02:59;;;;;;;9.68;7.30;;;14.30;99.90;;;;;;6098036;23;20211;-78
2022/09/24 05:05:26;;;;;;;8.43;7.72;;;14.20;99.90;;;;;;6096510;23;20230;-79
2022/09/24 05:07:55;;;;;;;7.65;6.97;;;14.20;99.90;;;;;;6098330;23;20210;-78
2022/09/24 05:10:23;;;;;;;10.02;9.05;;;14.20;99.90;;;;;;6084282;23;20211;-78
2022/09/24 05:12:50;;;;;;;9.82;9.02;;;14.20;99.90;;;;;;6100221;23;20223;-78
2022/09/24 05:15:18;;;;;;;8.70;7.95;;;14.20;99.90;;;;;;6097901;23;20234;-78
2022/09/24 05:17:45;;;;;;;8.60;7.82;;;14.20;99.90;;;;;;6098789;23;20514;-79
2022/09/24 05:20:15;;;;;;;8.75;7.88;;;14.20;99.90;;;;;;6097611;23;20628;-79
2022/09/24 05:22:43;;;;;;;13.68;11.25;;;14.20;99.90;;;;;;6097777;23;20639;-78
2022/09/24 05:25:11;;;;;;;9.65;8.75;;;14.20;99.90;;;;;;6097376;23;20199;-80
2022/09/24 05:27:42;;;;;;;8.80;8.00;;;14.20;99.90;;;;;;6092112;23;20198;-79
2022/09/24 05:30:10;;;;;;;9.95;9.02;;;14.20;99.90;;;;;;6111843;23;20199;-79
2022/09/24 05:35:35;;;;;;;9.18;7.95;;;14.20;99.90;;;;;;6054703;23;20501;-80
2022/09/24 05:38:02;;;;;;;7.35;6.85;;;14.20;99.90;;;;;;6101442;23;20234;-78
2022/09/24 05:40:48;;;;;;;8.40;7.60;;;14.20;99.90;;;;;;6101373;23;20493;-78
2022/09/24 05:43:16;;;;;;;8.93;8.18;;;14.20;99.90;;;;;;6100060;23;20211;-78
2022/09/24 05:45:45;;;;;;;9.88;8.02;;;14.20;99.90;;;;;;6100813;23;20227;-79
2022/09/24 05:48:15;;;;;;;8.93;7.70;;;14.20;99.90;;;;;;6102388;23;20526;-78
2022/09/24 05:50:43;;;;;;;8.45;7.75;;;14.20;99.90;;;;;;6103660;23;20943;-78
2022/09/24 05:53:10;;;;;;;8.50;7.70;;;14.20;99.90;;;;;;6107179;23;20532;-78
2022/09/24 05:55:37;;;;;;;9.13;8.18;;;14.20;99.90;;;;;;6106328;23;20215;-78
2022/09/24 05:58:06;;;;;;;8.00;7.35;;;14.20;99.90;;;;;;6105390;23;20207;-79
2022/09/24 06:00:34;;;;;;;7.93;7.32;;;14.10;99.90;;;;;;6103297;23;20217;-78
2022/09/24 06:03:06;;;;;;;8.82;7.93;;;14.10;99.90;;;;;;6103585;23;20218;-79
2022/09/24 06:05:34;;;;;;;9.68;8.77;;;14.10;99.90;;;;;;6104081;23;20655;-78
2022/09/24 06:08:03;;;;;;;8.93;7.97;;;14.10;99.90;;;;;;6103750;23;20493;-78
2022/09/24 06:10:30;;;;;;;7.97;7.35;;;14.10;99.90;;;;;;6104312;23;20214;-78
2022/09/24 06:12:57;;;;;;;8.75;7.93;;;14.10;99.90;;;;;;6102849;23;20243;-79
2022/09/24 06:15:26;;;;;;;9.35;8.45;;;14.10;99.90;;;;;;6101631;23;20207;-79
2022/09/24 06:17:59;;;;;;;9.20;8.43;;;14.10;99.90;;;;;;6103080;23;20218;-78
2022/09/24 06:20:25;;;;;;;8.70;8.00;;;14.10;99.90;;;;;;6103480;23;20459;-79
2022/09/24 06:22:56;;;;;;;9.52;8.60;;;14.10;99.90;;;;;;6104685;23;20199;-78
2022/09/24 06:25:25;;;;;;;9.70;8.45;;;14.10;99.90;;;;;;6102632;23;20690;-78
2022/09/24 06:27:59;;;;;;;8.80;8.07;;;14.20;99.90;;;;;;6097868;23;20215;-78
2022/09/24 06:30:27;;;;;;;8.07;7.20;;;14.20;99.90;;;;;;6101309;23;20203;-78
2022/09/24 06:32:54;;;;;;;8.88;8.07;;;14.20;99.90;;;;;;6103146;23;20208;-78
2022/09/24 06:35:21;;;;;;;9.50;8.60;;;14.20;99.90;;;;;;6104445;23;20210;-78
2022/09/24 06:37:49;;;;;;;10.20;9.18;;;14.20;99.90;;;;;;6103811;23;20217;-79
2022/09/24 06:40:16;;;;;;;12.18;9.23;;;14.20;99.90;;;;;;6102346;23;20203;-78
2022/09/24 06:42:44;;;;;;;9.10;8.32;;;14.30;99.90;;;;;;6103703;23;20211;-78
2022/09/24 06:45:12;;;;;;;8.85;8.13;;;14.30;99.90;;;;;;6100477;23;20203;-78
2022/09/24 06:47:39;;;;;;;11.02;8.38;;;14.30;99.90;;;;;;6090215;23;20207;-79
2022/09/24 06:50:08;;;;;;;8.90;8.00;;;14.40;99.90;;;;;;6102250;23;20208;-79
2022/09/24 06:52:35;;;;;;;10.52;8.15;;;14.40;99.90;;;;;;6103789;23;20218;-79
2022/09/24 06:55:02;;;;;;;10.55;9.55;;;14.40;99.90;;;;;;6104026;23;20207;-78
2022/09/24 06:57:29;;;;;;;9.63;8.73;;;14.50;99.90;;;;;;6103134;23;20687;-79
2022/09/24 06:59:58;;;;;;;8.43;7.63;;;14.50;99.90;;;;;;6103916;23;20435;-80
2022/09/24 07:02:25;;;;;;;7.83;7.10;;;14.40;99.90;;;;;;6102196;23;20208;-79
2022/09/24 07:04:52;;;;;;;10.35;8.05;;;14.40;99.90;;;;;;6104327;23;20459;-79
2022/09/24 07:07:32;;;;;;;8.57;7.78;;;14.50;99.90;;;;;;6101274;23;20195;-79
2022/09/24 07:10:00;;;;;;;8.25;7.45;;;14.50;99.90;;;;;;6100526;23;20199;-79
2022/09/24 07:12:28;;;;;;;8.83;8.03;;;14.60;99.90;;;;;;6049497;23;1304558;-79
2022/09/24 07:14:57;;;;;;;8.57;7.85;;;14.50;99.90;;;;;;6103032;23;20211;-79
2022/09/24 07:17:24;;;;;;;13.70;8.23;;;14.60;99.90;;;;;;6105206;23;20204;-78
2022/09/24 07:19:52;;;;;;;8.13;7.43;;;14.50;99.90;;;;;;6104279;23;20643;-79
2022/09/24 07:22:19;;;;;;;8.52;7.82;;;14.60;99.90;;;;;;6106840;23;20218;-77
2022/09/24 07:24:47;;;;;;;8.63;7.88;;;14.60;99.90;;;;;;6112005;23;20183;-79
2022/09/24 07:27:14;;;;;;;10.35;7.35;;;14.60;99.90;;;;;;6103370;23;20210;-79
2022/09/24 07:29:41;;;;;;;8.80;8.10;;;14.70;99.90;;;;;;6112507;23;20489;-78
2022/09/24 07:32:10;;;;;;;8.57;7.88;;;14.70;99.90;;;;;;6112891;23;20472;-77
2022/09/24 07:34:36;;;;;;;8.05;7.25;;;14.70;99.90;;;;;;6106017;23;20632;-78
2022/09/24 07:37:04;;;;;;;9.73;7.82;;;14.80;99.90;;;;;;6104692;23;20227;-78
2022/09/24 07:39:31;;;;;;;8.90;7.27;;;14.80;99.90;;;;;;6106686;23;20291;-78
2022/09/24 07:41:59;;;;;;;9.48;8.70;;;14.80;99.90;;;;;;6105470;23;20467;-79
2022/09/24 07:44:26;;;;;;;9.43;8.40;;;14.90;99.90;;;;;;6103133;23;20211;-76
2022/09/24 07:46:53;;;;;;;7.57;6.87;;;14.90;99.90;;;;;;6102667;23;20935;-77
2022/09/24 07:49:21;;;;;;;8.50;7.77;;;14.90;99.90;;;;;;6106573;23;20443;-78
2022/09/24 07:51:49;;;;;;;7.80;7.10;;;15.00;99.90;;;;;;6104515;23;20451;-77
2022/09/24 07:54:16;;;;;;;8.67;7.90;;;15.00;99.90;;;;;;6113506;23;20503;-78
2022/09/24 07:56:43;;;;;;;7.77;7.17;;;15.10;99.90;;;;;;6106087;23;20435;-78
2022/09/24 07:59:11;;;;;;;7.90;7.20;;;15.10;99.90;;;;;;6107920;23;20447;-77
2022/09/24 08:01:39;;;;;;;10.17;9.13;;;15.20;99.90;;;;;;6105960;23;20451;-78
2022/09/24 08:04:07;;;;;;;9.57;8.73;;;15.20;99.90;;;;;;6102293;23;20459;-78
2022/09/24 08:06:36;;;;;;;8.50;7.67;;;15.10;99.90;;;;;;6102994;23;20467;-79
2022/09/24 08:09:04;;;;;;;7.22;6.57;;;15.20;99.90;;;;;;6105443;23;20463;-79
2022/09/24 08:11:31;;;;;;;8.73;7.90;;;15.20;99.90;;;;;;6103806;23;20219;-79
2022/09/24 08:13:58;;;;;;;8.63;7.83;;;15.30;99.90;;;;;;6102413;23;20451;-78
2022/09/24 08:16:28;;;;;;;10.60;8.77;;;15.30;99.90;;;;;;6101171;23;20474;-79
2022/09/24 08:18:57;;;;;;;8.70;7.83;;;15.30;99.90;;;;;;6102325;23;20860;-78
2022/09/24 08:21:28;;;;;;;7.80;7.20;;;15.30;99.90;;;;;;6113321;23;20446;-78
2022/09/24 08:23:56;;;;;;;9.93;8.98;;;15.40;99.90;;;;;;6104732;23;20471;-78
2022/09/24 08:26:23;;;;;;;9.47;8.70;;;15.30;99.90;;;;;;6106496;23;20266;-77
2022/09/24 08:28:50;;;;;;;8.10;6.77;;;15.40;99.90;;;;;;6110466;23;20435;-77
2022/09/24 08:31:18;;;;;;;9.70;8.87;;;15.40;99.90;;;;;;6107477;23;20796;-78
2022/09/24 08:33:49;;;;;;;10.27;9.48;;;15.40;99.90;;;;;;6110699;23;20438;-76
2022/09/24 08:36:17;;;;;;;10.10;9.13;;;15.40;99.90;;;;;;6109807;23;20207;-79
2022/09/24 08:38:45;;;;;;;10.03;8.93;;;15.40;99.90;;;;;;6108630;23;20424;-79
2022/09/24 08:41:31;;;;;;;9.87;8.97;;;15.40;99.90;;;;;;6106663;23;20448;-80
2022/09/24 08:44:04;;;;;;;10.30;9.47;;;15.50;99.90;;;;;;6104545;23;20438;-76
2022/09/24 08:49:26;;;;;;;11.17;10.17;;;15.50;99.90;;;;;;6105146;23;20471;-78
2022/09/24 08:52:00;;;;;;;10.23;9.23;;;15.50;99.90;;;;;;6103974;23;20439;-78
2022/09/24 08:54:31;;;;;;;7.50;6.90;;;15.60;99.90;;;;;;6104250;23;20463;-78
2022/09/24 08:57:03;;;;;;;8.33;7.63;;;15.60;99.90;;;;;;6105807;23;20440;-78
2022/09/24 08:59:32;;;;;;;9.37;8.47;;;15.60;99.90;;;;;;6105488;23;20896;-78
2022/09/24 09:02:17;;;;;;;8.93;7.93;;;15.70;99.90;;;;;;6100986;23;20479;-79
2022/09/24 09:04:56;;;;;;;7.93;7.23;;;15.70;99.90;;;;;;6104201;23;20420;-78
2022/09/24 09:07:26;;;;;;;8.20;7.27;;;15.80;99.90;;;;;;6102747;23;20451;-77
2022/09/24 09:09:58;;;;;;;7.93;7.33;;;15.90;99.90;;;;;;6101667;23;20431;-77
2022/09/24 09:12:34;;;;;;;8.70;7.80;;;16.00;99.90;;;;;;6099458;23;20458;-78
2022/09/24 09:15:04;;;;;;;9.53;8.60;;;16.00;99.90;;;;;;6099927;23;20554;-77
2022/09/24 09:17:41;;;;;;;9.80;8.90;;;16.00;99.90;;;;;;6098931;23;20472;-80
2022/09/24 09:20:16;;;;;;;9.57;8.80;;;16.10;99.90;;;;;;6099167;23;20462;-78
2022/09/24 09:22:46;;;;;;;12.13;9.93;;;16.10;99.90;;;;;;6099316;23;20945;-77
2022/09/24 09:25:20;;;;;;;10.33;9.40;;;16.20;99.90;;;;;;6100242;23;20436;-78
2022/09/24 09:27:53;;;;;;;11.20;9.83;;;16.10;99.90;;;;;;6096443;23;20431;-78
2022/09/24 09:30:21;;;;;;;9.67;8.77;;;16.20;99.90;;;;;;6099007;23;20439;-77
2022/09/24 09:33:13;;;;;;;7.93;7.13;;;16.20;99.90;;;;;;6098093;23;20435;-80
2022/09/24 09:35:50;;;;;;;9.40;8.50;;;16.30;99.90;;;;;;6098241;23;20439;-78
2022/09/24 09:38:27;;;;;;;10.63;9.63;;;16.30;99.90;;;;;;6098163;23;20924;-78
2022/09/24 09:41:03;;;;;;;9.20;8.33;;;16.40;99.90;;;;;;6097749;23;20987;-80
2022/09/24 09:43:31;;;;;;;7.97;7.27;;;16.40;99.90;;;;;;6098265;23;20483;-80
2022/09/24 09:46:11;;;;;;;8.23;7.53;;;16.50;99.90;;;;;;6098218;23;20470;-79
2022/09/24 09:48:45;;;;;;;11.00;9.90;;;16.60;99.90;;;;;;6098371;23;20477;-78
2022/09/24 09:51:19;;;;;;;9.97;8.93;;;16.60;99.90;;;;;;6097645;23;20475;-79
2022/09/24 09:53:58;;;;;;;7.70;7.10;;;16.60;99.90;;;;;;6084180;23;20454;-79
2022/09/24 09:56:27;;;;;;;10.30;9.40;;;16.70;99.90;;;;;;6097045;23;20478;-77
2022/09/24 09:59:06;;;;;;;9.33;8.50;;;16.70;99.90;;;;;;6097074;23;20486;-79
2022/09/24 10:01:35;;;;;;;8.47;7.67;;;16.80;99.90;;;;;;6097341;23;20439;-78
2022/09/24 10:04:04;;;;;;;12.47;9.30;;;16.90;99.90;;;;;;6097822;23;20433;-77
2022/09/24 10:06:34;;;;;;;10.47;8.20;;;16.90;99.90;;;;;;6095747;23;20456;-79
2022/09/24 10:09:12;;;;;;;10.67;7.40;;;16.90;99.90;;;;;;6097148;23;20930;-78
2022/09/24 10:11:39;;;;;;;9.10;6.20;;;17.00;99.90;;;;;;6096092;23;20763;-79
2022/09/24 10:14:11;;;;;;;8.47;7.77;;;17.00;99.90;;;;;;6097655;23;20498;-78
2022/09/24 10:16:40;;;;;;;8.90;8.10;;;17.00;99.90;;;;;;6097561;23;20508;-78
2022/09/24 10:19:17;;;;;;;9.77;8.70;;;17.00;99.90;;;;;;6097632;23;20498;-78
2022/09/24 10:21:44;;;;;;;7.87;7.10;;;17.10;99.90;;;;;;6096877;23;20786;-79
2022/09/24 10:24:16;;;;;;;9.67;8.97;;;17.10;99.90;;;;;;6097724;23;20500;-79
2022/09/24 10:26:45;;;;;;;8.77;8.07;;;17.10;99.90;;;;;;6097160;23;20489;-79
2022/09/24 10:32:05;;;;;;;8.60;7.80;;;17.00;99.90;;;;;;6097237;23;20521;-79
2022/09/24 10:34:32;;;;;;;7.57;6.97;;;17.00;99.90;;;;;;6097289;23;20444;-79
2022/09/24 10:37:01;;;;;;;8.23;7.53;;;17.00;99.90;;;;;;6096174;23;20444;-78
2022/09/24 10:39:28;;;;;;;9.00;8.17;;;16.90;99.90;;;;;;6097813;23;20453;-78
2022/09/24 10:41:57;;;;;;;8.90;7.63;;;16.90;99.90;;;;;;6096882;23;20448;-79
2022/09/24 10:44:32;;;;;;;8.63;7.87;;;16.90;99.90;;;;;;6097147;23;20456;-79
2022/09/24 10:47:25;;;;;;;8.37;7.33;;;16.90;99.90;;;;;;6096930;23;20509;-79
2022/09/24 10:50:07;;;;;;;8.60;7.90;;;16.90;99.90;;;;;;6097389;23;20439;-79
2022/09/24 10:53:33;;;;;;;7.40;6.60;;;17.00;99.90;;;;;;6097986;23;20922;-79
2022/09/24 10:56:10;;;;;;;6.40;5.80;;;17.00;99.90;;;;;;6095368;23;20465;-78
2022/09/24 10:59:02;;;;;;;8.80;6.70;;;17.10;99.90;;;;;;6096804;23;20448;-79
2022/09/24 11:01:39;;;;;;;7.90;7.10;;;17.10;99.90;;;;;;6096401;23;20437;-79
2022/09/24 11:04:20;;;;;;;7.27;6.53;;;17.10;99.90;;;;;;6097756;23;20494;-78
2022/09/24 11:07:13;;;;;;;5.43;5.03;;;17.20;99.90;;;;;;6098381;23;20439;-78
2022/09/24 11:09:47;;;;;;;7.03;6.43;;;17.30;99.90;;;;;;6098838;23;20447;-78
2022/09/24 11:12:24;;;;;;;7.00;6.33;;;17.30;99.90;;;;;;6098644;23;20775;-78
2022/09/24 11:15:03;;;;;;;6.20;5.70;;;17.40;99.90;;;;;;6098671;23;23002;-77
2022/09/24 11:17:39;;;;;;;8.10;6.73;;;17.40;99.90;;;;;;6099583;23;20446;-78
2022/09/24 11:20:22;;;;;;;8.70;7.90;;;17.50;99.90;;;;;;6097557;23;20432;-78
2022/09/24 11:23:41;;;;;;;7.97;7.23;;;17.50;99.90;;;;;;6098549;23;20452;-78
2022/09/24 11:26:22;;;;;;;7.10;6.50;;;17.60;99.90;;;;;;6022891;23;20446;-79
2022/09/24 11:29:22;;;;;;;7.57;6.87;;;17.60;99.90;;;;;;6037385;23;20436;-79
2022/09/24 11:32:05;;;;;;;6.20;5.67;;;17.70;99.90;;;;;;6089614;23;20524;-79
2022/09/24 11:34:52;;;;;;;6.33;5.83;;;17.70;99.90;;;;;;6095852;23;20457;-79
2022/09/24 11:37:38;;;;;;;6.33;5.83;;;17.70;99.90;;;;;;6098296;23;20524;-77
2022/09/24 11:40:45;;;;;;;7.00;6.27;;;17.80;99.90;;;;;;6099329;23;20445;-77
2022/09/24 11:43:50;;;;;;;6.30;5.70;;;17.80;99.90;;;;;;5971368;23;20442;-77
2022/09/24 11:46:47;;;;;;;5.80;5.30;;;17.90;99.90;;;;;;5964945;23;20447;-77
2022/09/24 11:49:45;;;;;;;7.33;6.33;;;18.00;99.90;;;;;;6099392;23;20443;-77
2022/09/24 11:52:22;;;;;;;7.37;6.77;;;18.00;99.90;;;;;;6096566;23;20487;-77
2022/09/24 11:55:00;;;;;;;6.87;6.17;;;18.00;99.60;;;;;;6096647;23;20434;-77
2022/09/24 11:57:39;;;;;;;6.80;6.20;;;18.00;99.50;;;;;;6095719;23;20915;-78
2022/09/24 12:00:14;;;;;;;7.67;7.07;;;18.10;99.60;;;;;;6094739;23;20449;-78
2022/09/24 12:02:46;;;;;;;6.70;6.10;;;18.10;99.60;;;;;;6098560;23;20442;-77
2022/09/24 12:05:42;;;;;;;6.40;5.80;;;18.20;99.70;;;;;;6084948;23;20500;-77
2022/09/24 12:08:13;;;;;;;6.97;6.40;;;18.20;99.60;;;;;;6104910;23;20446;-78
2022/09/24 12:10:47;;;;;;;7.60;6.50;;;18.30;99.70;;;;;;6096961;23;20466;-78
2022/09/24 12:13:25;;;;;;;7.27;6.60;;;18.30;99.70;;;;;;6098493;23;20721;-80
2022/09/24 12:15:56;;;;;;;6.77;6.17;;;18.30;99.70;;;;;;6098180;23;20479;-79
2022/09/24 12:18:31;;;;;;;6.83;6.33;;;18.30;99.80;;;;;;6099868;23;20452;-80
2022/09/24 12:21:17;;;;;;;6.70;6.20;;;18.30;99.80;;;;;;6070453;23;20439;-79
2022/09/24 12:24:02;;;;;;;5.90;5.40;;;18.30;99.90;;;;;;6101642;23;20462;-80
2022/09/24 12:26:34;;;;;;;6.83;5.83;;;18.30;99.90;;;;;;6095475;23;20494;-78
2022/09/24 12:34:59;;;;;;;6.50;6.00;;;18.30;99.90;;;;;;6099444;23;20513;-78
2022/09/24 12:37:37;;;;;;;7.27;5.93;;;18.30;99.90;;;;;;6100633;23;20510;-78
2022/09/24 12:40:21;;;;;;;7.43;6.83;;;18.30;99.90;;;;;;6087260;23;20443;-79
2022/09/24 12:42:54;;;;;;;8.97;8.17;;;18.30;99.90;;;;;;6114258;23;20446;-80
2022/09/24 12:45:25;;;;;;;11.20;9.60;;;18.30;99.90;;;;;;6097866;23;20728;-78
2022/09/24 12:47:56;;;;;;;7.33;6.80;;;18.20;99.90;;;;;;6086321;23;20805;-79
2022/09/24 12:50:26;;;;;;;7.67;7.03;;;18.20;99.90;;;;;;6097868;23;20419;-80
2022/09/24 12:52:54;;;;;;;8.10;7.40;;;18.20;99.90;;;;;;6098288;23;20467;-80
2022/09/24 12:55:24;;;;;;;6.40;5.90;;;18.20;99.90;;;;;;6098212;23;20427;-79
2022/09/24 12:57:54;;;;;;;6.97;6.37;;;18.20;99.90;;;;;;6097245;23;20435;-77
2022/09/24 13:00:37;;;;;;;7.90;7.30;;;18.20;99.90;;;;;;6097465;23;20466;-78
2022/09/24 13:03:05;;;;;;;7.70;7.00;;;18.30;99.90;;;;;;6096807;23;20447;-78
2022/09/24 13:05:34;;;;;;;8.13;7.40;;;18.30;99.90;;;;;;6097924;23;20438;-78
2022/09/24 13:08:30;;;;;;;9.07;8.03;;;18.40;99.90;;;;;;6097165;23;20435;-79
2022/09/24 13:11:26;;;;;;;8.53;7.70;;;18.40;99.90;;;;;;6095745;23;20465;-79
2022/09/24 13:14:20;;;;;;;6.30;5.80;;;18.30;99.90;;;;;;6096973;23;20473;-81
2022/09/24 13:16:50;;;;;;;10.00;7.80;;;18.40;99.90;;;;;;6100797;23;20535;-79
2022/09/24 13:19:29;;;;;;;7.63;6.83;;;18.30;99.90;;;;;;6089638;23;20444;-78
2022/09/24 13:22:01;;;;;;;7.13;6.63;;;18.40;99.90;;;;;;6095915;23;20442;-78
2022/09/24 13:24:36;;;;;;;8.20;6.80;;;18.30;99.90;;;;;;6111223;23;20438;-79
2022/09/24 13:27:22;;;;;;;6.87;6.27;;;18.30;99.90;;;;;;6110197;23;20448;-79
2022/09/24 13:33:02;;;;;;;7.50;6.80;;;18.30;99.90;;;;;;6058781;23;20469;-80
2022/09/24 13:35:50;;;;;;;8.20;7.40;;;18.30;99.90;;;;;;6098416;23;20449;-79
2022/09/24 13:41:30;;;;;;;7.57;6.97;;;18.30;99.90;;;;;;6088764;23;20434;-79
2022/09/24 13:44:06;;;;;;;5.70;5.30;;;18.30;99.90;;;;;;6110947;23;20716;-79
2022/09/24 13:46:36;;;;;;;5.73;5.33;;;18.30;99.90;;;;;;6107857;23;20430;-80